Aérodrome :
LOGIN :

S'inscrire | Disclaimer

   EN    FR    IT 

 










Légende :    VFR   VFR Marginal   IFR   IFR Intensif   IFR Très Intensif
Visi : 
Plafond : 
>= 8 km
>= 3000ft
5 à 8 km
1000 à 3000 ft
1500m à 5 km
500 à 1000 ft
800 à 1500m
200 à 500 ft
< 800m
< 200 ft
Symboles :   Orages  Brouillard  Fortes neiges  Fortes précipitations  Vent > 20 kt
SIGMETs :   Divers  Orages  Givrage  Turbulence  Onde Orograph.  Cendres Volcan.






- Altitude de l'aérodrome : 1411 ft
- Code IATA : GVA


LSGG - Genève Cointrin

DERNIER METAR :
  • 132220Z AUTO 28003KT CAVOK 14/12 Q1018 NOSIG

METARs EXPIRÉS :
  • 132150Z AUTO VRB03KT CAVOK 15/12 Q1018 NOSIG
  • 132120Z 27005KT CAVOK 16/12 Q1018 NOSIG
  • 132050Z 23005KT CAVOK 17/12 Q1018 NOSIG
  • 132020Z 20006KT CAVOK 17/12 Q1018 NOSIG
  • 131950Z 22006KT CAVOK 18/12 Q1018 NOSIG

TAF TAF LSGG
Valide du 13 à 21h jusqu'au 15 à 03h UTC


132025Z 1321/1503 VRB03KT CAVOK TX21/1415Z TN11/1405Z
PROB30
TEMPO 1403/1407 4900 MIFG NSC
ATIS : +41 22 417 40 81



MET'MAP, la Météo Aéronautique d'un coup d'oeil ! - Copyright ORBIFLY Décembre 2007 - Disclaimer

ORBIFLY MET'MAP TEAM :

Programmation & Développement : Alexandra Zaïnal
Conception & Développement : Baudouin d'Aumeries
Co-Programmation & Développement : Marc-Olivier Méhu
Soutien technique & logistique : Manuel Goepfert

Contact : metmap@orbifly.com




SOURCES & CREDITS :

   NOAA